CXA5948 ZGCD-ZGSZ
Flight info
| Callsign | CXA5948 |
|---|---|
| Flight time | 1h 29m |
| Altitude | 29100 |
| Route | AVKOK W194 LLC W138 RUKLI H166 UKBOL W228 APESO W37 OMBEB R473 NOLON W90 POU W7 SAREX |
| Aircraft | A321/M-SADE2E3FGHIJ3J5LM1ORVWY/HB1 |
Departure
| Time | 2026-04-27 12:09 |
|---|---|
| Airport | Changde Taohuayuan Airport (ZGCD) |
Arrival
| Time | 2026-04-27 13:38 |
|---|---|
| Airport | Shenzhen Bao'an International Airport (ZGSZ) |
| Time | Latitude | Longitude | Altitude | Speed | Heading |
|---|---|---|---|---|---|
| 2026-04-27 11:33 | 28.92184 | 111.63450 | 164 ft | 0 kts | 283° |
| 2026-04-27 11:54 | 28.92184 | 111.63452 | 164 ft | 1 kts | 283° |
| 2026-04-27 11:54 | 28.92180 | 111.63470 | 164 ft | 3 kts | 282° |
| 2026-04-27 11:55 | 28.92176 | 111.63492 | 164 ft | 3 kts | 284° |
| 2026-04-27 11:55 | 28.92170 | 111.63514 | 164 ft | 3 kts | 299° |
| 2026-04-27 11:55 | 28.92159 | 111.63529 | 164 ft | 3 kts | 338° |
| 2026-04-27 11:55 | 28.92142 | 111.63539 | 164 ft | 3 kts | 307° |
| 2026-04-27 11:56 | 28.92134 | 111.63558 | 164 ft | 3 kts | 281° |
| 2026-04-27 11:56 | 28.92131 | 111.63580 | 164 ft | 2 kts | 281° |
| 2026-04-27 11:56 | 28.92130 | 111.63586 | 164 ft | 0 kts | 282° |
| 2026-04-27 12:00 | 28.92130 | 111.63584 | 164 ft | 1 kts | 282° |
| 2026-04-27 12:00 | 28.92133 | 111.63573 | 164 ft | 3 kts | 282° |
| 2026-04-27 12:01 | 28.92124 | 111.63530 | 164 ft | 8 kts | 214° |
| 2026-04-27 12:01 | 28.92066 | 111.63514 | 164 ft | 9 kts | 193° |
| 2026-04-27 12:01 | 28.91998 | 111.63496 | 164 ft | 10 kts | 193° |
| 2026-04-27 12:01 | 28.91944 | 111.63519 | 164 ft | 9 kts | 120° |
| 2026-04-27 12:02 | 28.91928 | 111.63586 | 164 ft | 9 kts | 103° |
| 2026-04-27 12:02 | 28.91913 | 111.63662 | 164 ft | 11 kts | 103° |
| 2026-04-27 12:02 | 28.91895 | 111.63748 | 164 ft | 12 kts | 103° |
| 2026-04-27 12:02 | 28.91876 | 111.63844 | 164 ft | 13 kts | 103° |
| 2026-04-27 12:03 | 28.91849 | 111.63945 | 164 ft | 13 kts | 133° |
| 2026-04-27 12:03 | 28.91769 | 111.63935 | 164 ft | 12 kts | 194° |
| 2026-04-27 12:03 | 28.91682 | 111.63912 | 164 ft | 13 kts | 193° |
| 2026-04-27 12:03 | 28.91583 | 111.63886 | 164 ft | 19 kts | 193° |
| 2026-04-27 12:04 | 28.91412 | 111.63839 | 164 ft | 31 kts | 193° |
| 2026-04-27 12:04 | 28.91197 | 111.63784 | 164 ft | 32 kts | 193° |
| 2026-04-27 12:04 | 28.90986 | 111.63726 | 164 ft | 25 kts | 194° |
| 2026-04-27 12:04 | 28.90863 | 111.63685 | 164 ft | 12 kts | 226° |
| 2026-04-27 12:05 | 28.90812 | 111.63640 | 164 ft | 8 kts | 202° |
| 2026-04-27 12:05 | 28.90798 | 111.63635 | 164 ft | 1 kts | 193° |
| 2026-04-27 12:06 | 28.90795 | 111.63634 | 164 ft | 1 kts | 193° |
| 2026-04-27 12:06 | 28.90783 | 111.63631 | 164 ft | 2 kts | 185° |
| 2026-04-27 12:07 | 28.90768 | 111.63639 | 164 ft | 3 kts | 137° |
| 2026-04-27 12:07 | 28.90764 | 111.63663 | 164 ft | 2 kts | 65° |
| 2026-04-27 12:07 | 28.90784 | 111.63674 | 164 ft | 4 kts | 11° |
| 2026-04-27 12:07 | 28.90798 | 111.63677 | 164 ft | 0 kts | 13° |
| 2026-04-27 12:08 | 28.90844 | 111.63689 | 164 ft | 35 kts | 13° |
| 2026-04-27 12:08 | 28.91375 | 111.63831 | 164 ft | 118 kts | 12° |
| 2026-04-27 12:08 | 28.92373 | 111.64095 | 361 ft | 159 kts | 17° |
| 2026-04-27 12:09 | 28.93431 | 111.64392 | 1189 ft | 155 kts | 14° |
| 2026-04-27 12:09 | 28.94513 | 111.64426 | 1930 ft | 159 kts | 346° |
| 2026-04-27 12:09 | 28.95411 | 111.63743 | 2455 ft | 160 kts | 310° |
| 2026-04-27 12:09 | 28.95810 | 111.62571 | 2868 ft | 165 kts | 276° |
| 2026-04-27 12:10 | 28.95533 | 111.61273 | 3205 ft | 177 kts | 238° |
| 2026-04-27 12:10 | 28.94550 | 111.60377 | 3492 ft | 190 kts | 198° |
| 2026-04-27 12:10 | 28.93193 | 111.60323 | 3777 ft | 205 kts | 168° |
| 2026-04-27 12:10 | 28.91768 | 111.60718 | 4156 ft | 218 kts | 165° |
| 2026-04-27 12:11 | 28.90209 | 111.61099 | 4495 ft | 239 kts | 169° |
| 2026-04-27 12:11 | 28.88504 | 111.61400 | 4941 ft | 257 kts | 171° |
| 2026-04-27 12:11 | 28.86684 | 111.61705 | 5485 ft | 271 kts | 171° |
| 2026-04-27 12:11 | 28.84820 | 111.62145 | 5840 ft | 275 kts | 162° |
| 2026-04-27 12:12 | 28.83082 | 111.63042 | 6043 ft | 275 kts | 147° |
| 2026-04-27 12:12 | 28.81526 | 111.64327 | 6590 ft | 279 kts | 143° |
| 2026-04-27 12:12 | 28.79971 | 111.65663 | 7383 ft | 280 kts | 144° |
| 2026-04-27 12:12 | 28.78368 | 111.66937 | 8132 ft | 283 kts | 147° |
| 2026-04-27 12:13 | 28.76711 | 111.68179 | 8845 ft | 286 kts | 148° |
| 2026-04-27 12:13 | 28.75036 | 111.69413 | 9522 ft | 289 kts | 148° |
| 2026-04-27 12:13 | 28.73343 | 111.70674 | 10166 ft | 293 kts | 148° |
| 2026-04-27 12:13 | 28.71613 | 111.71980 | 10591 ft | 306 kts | 148° |
| 2026-04-27 12:14 | 28.69784 | 111.73370 | 10814 ft | 325 kts | 148° |
| 2026-04-27 12:14 | 28.67848 | 111.74840 | 11027 ft | 344 kts | 148° |
| 2026-04-27 12:14 | 28.65809 | 111.76382 | 11231 ft | 361 kts | 148° |
| 2026-04-27 12:14 | 28.63669 | 111.78001 | 11433 ft | 377 kts | 148° |
| 2026-04-27 12:15 | 28.61456 | 111.79683 | 11761 ft | 387 kts | 149° |
| 2026-04-27 12:15 | 28.59198 | 111.81389 | 12307 ft | 391 kts | 149° |
| 2026-04-27 12:15 | 28.56916 | 111.83108 | 12848 ft | 395 kts | 149° |
| 2026-04-27 12:15 | 28.54616 | 111.84837 | 13362 ft | 399 kts | 149° |
| 2026-04-27 12:16 | 28.52322 | 111.86562 | 13857 ft | 403 kts | 149° |
| 2026-04-27 12:16 | 28.49976 | 111.88332 | 14348 ft | 406 kts | 149° |
| 2026-04-27 12:16 | 28.47611 | 111.90113 | 14827 ft | 410 kts | 149° |
| 2026-04-27 12:16 | 28.45219 | 111.91914 | 15296 ft | 413 kts | 149° |
| 2026-04-27 12:17 | 28.42814 | 111.93727 | 15748 ft | 417 kts | 149° |
| 2026-04-27 12:17 | 28.40384 | 111.95559 | 16195 ft | 420 kts | 149° |
| 2026-04-27 12:17 | 28.37934 | 111.97405 | 16620 ft | 424 kts | 149° |
| 2026-04-27 12:17 | 28.35467 | 111.99259 | 17039 ft | 427 kts | 149° |
| 2026-04-27 12:18 | 28.32981 | 112.01129 | 17452 ft | 430 kts | 149° |
| 2026-04-27 12:18 | 28.30480 | 112.03012 | 17858 ft | 433 kts | 149° |
| 2026-04-27 12:18 | 28.27961 | 112.04909 | 18253 ft | 436 kts | 149° |
| 2026-04-27 12:18 | 28.25426 | 112.06815 | 18634 ft | 439 kts | 149° |
| 2026-04-27 12:19 | 28.22871 | 112.08726 | 19010 ft | 442 kts | 149° |
| 2026-04-27 12:19 | 28.20302 | 112.10647 | 19374 ft | 444 kts | 149° |
| 2026-04-27 12:19 | 28.17720 | 112.12591 | 19737 ft | 447 kts | 149° |
| 2026-04-27 12:19 | 28.15116 | 112.14549 | 20099 ft | 449 kts | 149° |
| 2026-04-27 12:20 | 28.12502 | 112.16503 | 20450 ft | 452 kts | 149° |
| 2026-04-27 12:20 | 28.09877 | 112.18468 | 20785 ft | 455 kts | 149° |
| 2026-04-27 12:20 | 28.07333 | 112.20623 | 21110 ft | 459 kts | 140° |
| 2026-04-27 12:20 | 28.05153 | 112.23299 | 21417 ft | 465 kts | 128° |
| 2026-04-27 12:21 | 28.03334 | 112.26336 | 21737 ft | 468 kts | 124° |
| 2026-04-27 12:21 | 28.01609 | 112.29472 | 22036 ft | 470 kts | 123° |
| 2026-04-27 12:21 | 27.99997 | 112.32648 | 22317 ft | 474 kts | 117° |
| 2026-04-27 12:21 | 27.98792 | 112.36171 | 22618 ft | 477 kts | 107° |
| 2026-04-27 12:22 | 27.98212 | 112.39871 | 22901 ft | 479 kts | 96° |
| 2026-04-27 12:22 | 27.97968 | 112.43641 | 23183 ft | 481 kts | 93° |
| 2026-04-27 12:22 | 27.97814 | 112.47426 | 23447 ft | 483 kts | 92° |
| 2026-04-27 12:22 | 27.97654 | 112.51226 | 23711 ft | 485 kts | 93° |
| 2026-04-27 12:23 | 27.97447 | 112.55041 | 23963 ft | 487 kts | 94° |
| 2026-04-27 12:23 | 27.97192 | 112.58828 | 24214 ft | 489 kts | 95° |
| 2026-04-27 12:23 | 27.96916 | 112.62659 | 24457 ft | 491 kts | 95° |
| 2026-04-27 12:23 | 27.96645 | 112.66517 | 24708 ft | 492 kts | 95° |
| 2026-04-27 12:24 | 27.96403 | 112.70377 | 25047 ft | 492 kts | 94° |
| 2026-04-27 12:24 | 27.96179 | 112.74235 | 25371 ft | 491 kts | 94° |
| 2026-04-27 12:24 | 27.95956 | 112.78084 | 25699 ft | 491 kts | 94° |
| 2026-04-27 12:24 | 27.95716 | 112.81945 | 26011 ft | 491 kts | 95° |
| 2026-04-27 12:25 | 27.95463 | 112.85787 | 26348 ft | 491 kts | 95° |
| 2026-04-27 12:25 | 27.95204 | 112.89638 | 26669 ft | 490 kts | 95° |
| 2026-04-27 12:25 | 27.94948 | 112.93485 | 26996 ft | 490 kts | 95° |
| 2026-04-27 12:25 | 27.94892 | 112.97329 | 27316 ft | 491 kts | 86° |
| 2026-04-27 12:26 | 27.95269 | 113.01171 | 27630 ft | 491 kts | 83° |
| 2026-04-27 12:26 | 27.95769 | 113.04982 | 27963 ft | 490 kts | 81° |
| 2026-04-27 12:26 | 27.96317 | 113.08782 | 28267 ft | 490 kts | 81° |
| 2026-04-27 12:26 | 27.96860 | 113.12590 | 28608 ft | 489 kts | 82° |
| 2026-04-27 12:27 | 27.97364 | 113.16399 | 28930 ft | 489 kts | 82° |
| 2026-04-27 12:27 | 27.98303 | 113.24040 | 29014 ft | 491 kts | 82° |
| 2026-04-27 12:28 | 27.99268 | 113.31694 | 29014 ft | 491 kts | 83° |
| 2026-04-27 12:28 | 27.99019 | 113.39301 | 28999 ft | 488 kts | 106° |
| 2026-04-27 12:28 | 27.97842 | 113.42878 | 29001 ft | 484 kts | 120° |
| 2026-04-27 12:29 | 27.96002 | 113.46038 | 29006 ft | 480 kts | 133° |
| 2026-04-27 12:29 | 27.93636 | 113.48668 | 29011 ft | 474 kts | 144° |
| 2026-04-27 12:29 | 27.90902 | 113.50695 | 29026 ft | 469 kts | 155° |
| 2026-04-27 12:30 | 27.85109 | 113.54086 | 29050 ft | 468 kts | 156° |
| 2026-04-27 12:30 | 27.79346 | 113.57514 | 29050 ft | 469 kts | 155° |
| 2026-04-27 12:31 | 27.73615 | 113.61053 | 29048 ft | 469 kts | 155° |
| 2026-04-27 12:31 | 27.67862 | 113.64514 | 29025 ft | 468 kts | 156° |
| 2026-04-27 12:32 | 27.61732 | 113.66643 | 28972 ft | 458 kts | 177° |
| 2026-04-27 12:32 | 27.55416 | 113.66647 | 28970 ft | 454 kts | 186° |
| 2026-04-27 12:33 | 27.49111 | 113.66361 | 28980 ft | 453 kts | 185° |
| 2026-04-27 12:33 | 27.42791 | 113.66231 | 28966 ft | 454 kts | 184° |
| 2026-04-27 12:34 | 27.37552 | 113.66158 | 28963 ft | 454 kts | 184° |
| 2026-04-27 12:34 | 27.31237 | 113.66010 | 28979 ft | 453 kts | 184° |
| 2026-04-27 12:35 | 27.24927 | 113.65857 | 28969 ft | 454 kts | 184° |
| 2026-04-27 12:35 | 27.18614 | 113.65821 | 28976 ft | 456 kts | 179° |
| 2026-04-27 12:36 | 27.12356 | 113.67222 | 28978 ft | 460 kts | 169° |
| 2026-04-27 12:36 | 27.06167 | 113.69134 | 28989 ft | 461 kts | 167° |
| 2026-04-27 12:37 | 26.99977 | 113.71003 | 29006 ft | 460 kts | 168° |
| 2026-04-27 12:37 | 26.93821 | 113.72775 | 29030 ft | 460 kts | 168° |
| 2026-04-27 12:38 | 26.87630 | 113.74601 | 29031 ft | 460 kts | 168° |
| 2026-04-27 12:38 | 26.81453 | 113.76446 | 29056 ft | 459 kts | 168° |
| 2026-04-27 12:39 | 26.75272 | 113.78240 | 29037 ft | 459 kts | 168° |
| 2026-04-27 12:39 | 26.69099 | 113.80093 | 29002 ft | 459 kts | 167° |
| 2026-04-27 12:40 | 26.62954 | 113.82092 | 28974 ft | 459 kts | 166° |
| 2026-04-27 12:40 | 26.56848 | 113.84020 | 28967 ft | 459 kts | 167° |
| 2026-04-27 12:41 | 26.50678 | 113.85904 | 28967 ft | 458 kts | 167° |
| 2026-04-27 12:41 | 26.44504 | 113.87718 | 28969 ft | 458 kts | 168° |
| 2026-04-27 12:42 | 26.38327 | 113.89508 | 28976 ft | 458 kts | 168° |
| 2026-04-27 12:42 | 26.32187 | 113.91289 | 29005 ft | 458 kts | 168° |
| 2026-04-27 12:43 | 26.26011 | 113.93074 | 29005 ft | 458 kts | 168° |
| 2026-04-27 12:43 | 26.19837 | 113.94848 | 29021 ft | 458 kts | 168° |
| 2026-04-27 12:44 | 26.13697 | 113.96615 | 29018 ft | 458 kts | 168° |
| 2026-04-27 12:44 | 26.07529 | 113.98401 | 29028 ft | 458 kts | 168° |
| 2026-04-27 12:45 | 26.01356 | 114.00169 | 29024 ft | 458 kts | 168° |
| 2026-04-27 12:45 | 25.95198 | 114.01981 | 29018 ft | 458 kts | 167° |
| 2026-04-27 12:46 | 25.89041 | 114.03828 | 29013 ft | 458 kts | 167° |
| 2026-04-27 12:46 | 25.82884 | 114.05653 | 29009 ft | 458 kts | 167° |
| 2026-04-27 12:47 | 25.76717 | 114.07476 | 29002 ft | 458 kts | 168° |
| 2026-04-27 12:47 | 25.70555 | 114.09291 | 28984 ft | 458 kts | 167° |
| 2026-04-27 12:48 | 25.64393 | 114.11102 | 28977 ft | 459 kts | 167° |
| 2026-04-27 12:48 | 25.58266 | 114.12912 | 28978 ft | 459 kts | 167° |
| 2026-04-27 12:49 | 25.52090 | 114.14726 | 28982 ft | 459 kts | 167° |
| 2026-04-27 12:49 | 25.45911 | 114.16547 | 28986 ft | 459 kts | 167° |
| 2026-04-27 12:50 | 25.39723 | 114.18369 | 28980 ft | 460 kts | 167° |
| 2026-04-27 12:50 | 25.33536 | 114.20184 | 28987 ft | 460 kts | 167° |
| 2026-04-27 12:51 | 25.27335 | 114.22006 | 28991 ft | 460 kts | 167° |
| 2026-04-27 12:51 | 25.21186 | 114.23794 | 28978 ft | 461 kts | 167° |
| 2026-04-27 12:52 | 25.14975 | 114.25616 | 28981 ft | 461 kts | 167° |
| 2026-04-27 12:52 | 25.08677 | 114.26777 | 28982 ft | 457 kts | 181° |
| 2026-04-27 12:53 | 24.99338 | 114.25094 | 28992 ft | 453 kts | 194° |
| 2026-04-27 12:53 | 24.93216 | 114.23660 | 29007 ft | 454 kts | 193° |
| 2026-04-27 12:54 | 24.87000 | 114.22397 | 29010 ft | 454 kts | 192° |
| 2026-04-27 12:54 | 24.80782 | 114.21096 | 29058 ft | 453 kts | 193° |
| 2026-04-27 12:55 | 24.74580 | 114.19739 | 29039 ft | 454 kts | 193° |
| 2026-04-27 12:55 | 24.68369 | 114.18416 | 29014 ft | 454 kts | 193° |
| 2026-04-27 12:56 | 24.62193 | 114.17115 | 29008 ft | 454 kts | 193° |
| 2026-04-27 12:56 | 24.55984 | 114.15791 | 28996 ft | 454 kts | 193° |
| 2026-04-27 12:57 | 24.49768 | 114.14468 | 28986 ft | 455 kts | 193° |
| 2026-04-27 12:57 | 24.43552 | 114.13154 | 28974 ft | 455 kts | 193° |
| 2026-04-27 12:58 | 24.37339 | 114.11799 | 28977 ft | 454 kts | 195° |
| 2026-04-27 12:58 | 24.31554 | 114.09160 | 29004 ft | 450 kts | 212° |
| 2026-04-27 12:59 | 24.26331 | 114.05460 | 28984 ft | 450 kts | 215° |
| 2026-04-27 12:59 | 24.21082 | 114.01702 | 29017 ft | 450 kts | 214° |
| 2026-04-27 13:00 | 24.15772 | 113.98065 | 29027 ft | 450 kts | 213° |
| 2026-04-27 13:00 | 24.10467 | 113.94408 | 29038 ft | 450 kts | 214° |
| 2026-04-27 13:01 | 24.05212 | 113.90741 | 29042 ft | 450 kts | 214° |
| 2026-04-27 13:01 | 23.99926 | 113.87070 | 29045 ft | 450 kts | 214° |
| 2026-04-27 13:02 | 23.94638 | 113.83405 | 29051 ft | 450 kts | 214° |
| 2026-04-27 13:02 | 23.89344 | 113.79733 | 29046 ft | 450 kts | 214° |
| 2026-04-27 13:03 | 23.84059 | 113.76073 | 29039 ft | 450 kts | 214° |
| 2026-04-27 13:03 | 23.78795 | 113.72436 | 29031 ft | 450 kts | 214° |
| 2026-04-27 13:04 | 23.73502 | 113.68777 | 29023 ft | 450 kts | 214° |
| 2026-04-27 13:04 | 23.68215 | 113.65126 | 29054 ft | 449 kts | 214° |
| 2026-04-27 13:05 | 23.62942 | 113.61492 | 29026 ft | 449 kts | 214° |
| 2026-04-27 13:05 | 23.57656 | 113.57848 | 28983 ft | 449 kts | 214° |
| 2026-04-27 13:06 | 23.52425 | 113.54197 | 28965 ft | 448 kts | 214° |
| 2026-04-27 13:06 | 23.47170 | 113.50504 | 28965 ft | 448 kts | 214° |
| 2026-04-27 13:07 | 23.41903 | 113.46841 | 28963 ft | 448 kts | 214° |
| 2026-04-27 13:07 | 23.36655 | 113.43191 | 28963 ft | 448 kts | 214° |
| 2026-04-27 13:08 | 23.31391 | 113.39523 | 28963 ft | 448 kts | 214° |
| 2026-04-27 13:08 | 23.26165 | 113.35889 | 29000 ft | 448 kts | 214° |
| 2026-04-27 13:09 | 23.21259 | 113.32485 | 29006 ft | 448 kts | 214° |
| 2026-04-27 13:09 | 23.16014 | 113.28844 | 28649 ft | 444 kts | 214° |
| 2026-04-27 13:10 | 23.13441 | 113.27058 | 28210 ft | 444 kts | 214° |
| 2026-04-27 13:10 | 23.10836 | 113.25250 | 27762 ft | 444 kts | 214° |
| 2026-04-27 13:10 | 23.08195 | 113.23499 | 27311 ft | 445 kts | 211° |
| 2026-04-27 13:10 | 23.05363 | 113.22103 | 26859 ft | 449 kts | 202° |
| 2026-04-27 13:11 | 23.02341 | 113.21227 | 26409 ft | 453 kts | 193° |
| 2026-04-27 13:11 | 22.99173 | 113.20950 | 25958 ft | 458 kts | 182° |
| 2026-04-27 13:11 | 22.95987 | 113.21302 | 25511 ft | 464 kts | 172° |
| 2026-04-27 13:11 | 22.92857 | 113.22219 | 25067 ft | 466 kts | 166° |
| 2026-04-27 13:12 | 22.89815 | 113.23293 | 24628 ft | 464 kts | 165° |
| 2026-04-27 13:12 | 22.86761 | 113.24393 | 24179 ft | 461 kts | 165° |
| 2026-04-27 13:12 | 22.83728 | 113.25469 | 23732 ft | 458 kts | 166° |
| 2026-04-27 13:12 | 22.80703 | 113.26515 | 23283 ft | 454 kts | 166° |
| 2026-04-27 13:13 | 22.77703 | 113.27532 | 22843 ft | 451 kts | 166° |
| 2026-04-27 13:13 | 22.74702 | 113.28548 | 22397 ft | 449 kts | 166° |
| 2026-04-27 13:13 | 22.71741 | 113.29557 | 21798 ft | 443 kts | 166° |
| 2026-04-27 13:13 | 22.68821 | 113.30562 | 21176 ft | 438 kts | 166° |
| 2026-04-27 13:14 | 22.65915 | 113.31564 | 20635 ft | 436 kts | 166° |
| 2026-04-27 13:14 | 22.63082 | 113.32540 | 20173 ft | 428 kts | 166° |
| 2026-04-27 13:14 | 22.60288 | 113.33526 | 19739 ft | 417 kts | 166° |
| 2026-04-27 13:14 | 22.57569 | 113.34498 | 19339 ft | 406 kts | 166° |
| 2026-04-27 13:15 | 22.54919 | 113.35434 | 18941 ft | 395 kts | 166° |
| 2026-04-27 13:15 | 22.52328 | 113.36322 | 18548 ft | 385 kts | 167° |
| 2026-04-27 13:15 | 22.49800 | 113.37174 | 18148 ft | 376 kts | 167° |
| 2026-04-27 13:15 | 22.47330 | 113.38003 | 17822 ft | 366 kts | 167° |
| 2026-04-27 13:16 | 22.44925 | 113.38818 | 17405 ft | 359 kts | 167° |
| 2026-04-27 13:16 | 22.42556 | 113.39622 | 16999 ft | 353 kts | 167° |
| 2026-04-27 13:16 | 22.40240 | 113.40411 | 16661 ft | 344 kts | 166° |
| 2026-04-27 13:16 | 22.37987 | 113.41183 | 16384 ft | 334 kts | 167° |
| 2026-04-27 13:17 | 22.35809 | 113.41931 | 16163 ft | 323 kts | 167° |
| 2026-04-27 13:17 | 22.33687 | 113.42659 | 15802 ft | 318 kts | 166° |
| 2026-04-27 13:17 | 22.31610 | 113.43367 | 15305 ft | 316 kts | 166° |
| 2026-04-27 13:17 | 22.29505 | 113.44079 | 14762 ft | 316 kts | 166° |
| 2026-04-27 13:18 | 22.27420 | 113.44789 | 14347 ft | 312 kts | 166° |
| 2026-04-27 13:18 | 22.25421 | 113.45685 | 13932 ft | 312 kts | 151° |
| 2026-04-27 13:18 | 22.23862 | 113.47312 | 13512 ft | 315 kts | 124° |
| 2026-04-27 13:18 | 22.23136 | 113.49533 | 13104 ft | 317 kts | 97° |
| 2026-04-27 13:19 | 22.23411 | 113.51871 | 12696 ft | 316 kts | 69° |
| 2026-04-27 13:19 | 22.24620 | 113.53813 | 12277 ft | 313 kts | 41° |
| 2026-04-27 13:19 | 22.26488 | 113.54926 | 11861 ft | 306 kts | 12° |
| 2026-04-27 13:19 | 22.28539 | 113.54990 | 11464 ft | 296 kts | 346° |
| 2026-04-27 13:20 | 22.30410 | 113.54181 | 11066 ft | 287 kts | 323° |
| 2026-04-27 13:20 | 22.31889 | 113.52793 | 10792 ft | 276 kts | 311° |
| 2026-04-27 13:20 | 22.33179 | 113.51327 | 10741 ft | 263 kts | 310° |
| 2026-04-27 13:20 | 22.34438 | 113.49926 | 10735 ft | 257 kts | 312° |
| 2026-04-27 13:21 | 22.35735 | 113.48600 | 10738 ft | 258 kts | 315° |
| 2026-04-27 13:21 | 22.37186 | 113.47453 | 10729 ft | 261 kts | 330° |
| 2026-04-27 13:21 | 22.38924 | 113.46885 | 10537 ft | 264 kts | 354° |
| 2026-04-27 13:21 | 22.40763 | 113.46941 | 10176 ft | 264 kts | 4° |
| 2026-04-27 13:22 | 22.41976 | 113.47063 | 9944 ft | 264 kts | 4° |
| 2026-04-27 13:22 | 22.44419 | 113.47153 | 9475 ft | 262 kts | 357° |
| 2026-04-27 13:22 | 22.46227 | 113.47060 | 9121 ft | 256 kts | 355° |
| 2026-04-27 13:22 | 22.47399 | 113.46979 | 8888 ft | 252 kts | 355° |
| 2026-04-27 13:23 | 22.49691 | 113.46853 | 8421 ft | 245 kts | 357° |
| 2026-04-27 13:23 | 22.50831 | 113.46814 | 8183 ft | 242 kts | 358° |
| 2026-04-27 13:23 | 22.52496 | 113.46748 | 7832 ft | 237 kts | 357° |
| 2026-04-27 13:23 | 22.54134 | 113.46664 | 7481 ft | 235 kts | 356° |
| 2026-04-27 13:24 | 22.55765 | 113.46578 | 7130 ft | 234 kts | 357° |
| 2026-04-27 13:24 | 22.57394 | 113.46500 | 6779 ft | 234 kts | 357° |
| 2026-04-27 13:24 | 22.59011 | 113.46539 | 6414 ft | 232 kts | 13° |
| 2026-04-27 13:24 | 22.60400 | 113.47320 | 6048 ft | 224 kts | 51° |
| 2026-04-27 13:25 | 22.61040 | 113.48773 | 5734 ft | 212 kts | 89° |
| 2026-04-27 13:25 | 22.60942 | 113.50339 | 5454 ft | 208 kts | 101° |
| 2026-04-27 13:25 | 22.60751 | 113.51886 | 5148 ft | 206 kts | 98° |
| 2026-04-27 13:25 | 22.60670 | 113.53434 | 4846 ft | 206 kts | 94° |
| 2026-04-27 13:26 | 22.60828 | 113.54954 | 4539 ft | 207 kts | 74° |
| 2026-04-27 13:26 | 22.61633 | 113.56241 | 4225 ft | 211 kts | 39° |
| 2026-04-27 13:26 | 22.62989 | 113.56838 | 3926 ft | 215 kts | 8° |
| 2026-04-27 13:26 | 22.64485 | 113.56856 | 3638 ft | 214 kts | 359° |
| 2026-04-27 13:27 | 22.65956 | 113.56804 | 3336 ft | 214 kts | 1° |
| 2026-04-27 13:27 | 22.67444 | 113.56837 | 3031 ft | 213 kts | 5° |
| 2026-04-27 13:27 | 22.68917 | 113.56912 | 2730 ft | 211 kts | 5° |
| 2026-04-27 13:27 | 22.70360 | 113.56970 | 2506 ft | 207 kts | 4° |
| 2026-04-27 13:28 | 22.71756 | 113.57003 | 2495 ft | 189 kts | 4° |
| 2026-04-27 13:28 | 22.73010 | 113.57036 | 2486 ft | 172 kts | 5° |
| 2026-04-27 13:28 | 22.74172 | 113.57075 | 2485 ft | 164 kts | 5° |
| 2026-04-27 13:28 | 22.75298 | 113.57108 | 2489 ft | 163 kts | 4° |
| 2026-04-27 13:29 | 22.76423 | 113.57219 | 2475 ft | 160 kts | 21° |
| 2026-04-27 13:29 | 22.77360 | 113.57831 | 2489 ft | 157 kts | 40° |
| 2026-04-27 13:29 | 22.78226 | 113.58565 | 2489 ft | 158 kts | 42° |
| 2026-04-27 13:29 | 22.79125 | 113.59248 | 2487 ft | 160 kts | 31° |
| 2026-04-27 13:30 | 22.80101 | 113.59819 | 2481 ft | 158 kts | 42° |
| 2026-04-27 13:30 | 22.80775 | 113.60733 | 2493 ft | 155 kts | 61° |
| 2026-04-27 13:30 | 22.81324 | 113.61732 | 2492 ft | 154 kts | 63° |
| 2026-04-27 13:30 | 22.81877 | 113.62728 | 2493 ft | 154 kts | 63° |
| 2026-04-27 13:31 | 22.82383 | 113.63736 | 2493 ft | 153 kts | 66° |
| 2026-04-27 13:31 | 22.82858 | 113.64772 | 2487 ft | 153 kts | 67° |
| 2026-04-27 13:31 | 22.83329 | 113.65808 | 2490 ft | 153 kts | 67° |
| 2026-04-27 13:31 | 22.83785 | 113.66852 | 2514 ft | 153 kts | 73° |
| 2026-04-27 13:32 | 22.83794 | 113.67966 | 2505 ft | 149 kts | 107° |
| 2026-04-27 13:32 | 22.83442 | 113.69012 | 2506 ft | 147 kts | 115° |
| 2026-04-27 13:32 | 22.83006 | 113.70016 | 2500 ft | 147 kts | 117° |
| 2026-04-27 13:32 | 22.82440 | 113.70927 | 2478 ft | 147 kts | 142° |
| 2026-04-27 13:33 | 22.81513 | 113.71375 | 2498 ft | 147 kts | 156° |
| 2026-04-27 13:33 | 22.80606 | 113.71887 | 2499 ft | 147 kts | 149° |
| 2026-04-27 13:33 | 22.79711 | 113.72421 | 2499 ft | 147 kts | 151° |
| 2026-04-27 13:33 | 22.78796 | 113.72919 | 2499 ft | 147 kts | 153° |
| 2026-04-27 13:34 | 22.77884 | 113.73402 | 2494 ft | 141 kts | 152° |
| 2026-04-27 13:34 | 22.77033 | 113.73873 | 2489 ft | 136 kts | 152° |
| 2026-04-27 13:34 | 22.76190 | 113.74342 | 2377 ft | 136 kts | 152° |
| 2026-04-27 13:34 | 22.75352 | 113.74800 | 2215 ft | 135 kts | 152° |
| 2026-04-27 13:35 | 22.74513 | 113.75259 | 2040 ft | 135 kts | 152° |
| 2026-04-27 13:35 | 22.73679 | 113.75718 | 1862 ft | 134 kts | 152° |
| 2026-04-27 13:35 | 22.72846 | 113.76175 | 1684 ft | 134 kts | 152° |
| 2026-04-27 13:35 | 22.72017 | 113.76630 | 1507 ft | 133 kts | 153° |
| 2026-04-27 13:36 | 22.71189 | 113.77084 | 1324 ft | 133 kts | 154° |
| 2026-04-27 13:36 | 22.70359 | 113.77538 | 1153 ft | 133 kts | 154° |
| 2026-04-27 13:36 | 22.69535 | 113.77991 | 970 ft | 132 kts | 154° |
| 2026-04-27 13:36 | 22.68718 | 113.78438 | 794 ft | 133 kts | 154° |
| 2026-04-27 13:37 | 22.67902 | 113.78886 | 618 ft | 130 kts | 154° |
| 2026-04-27 13:37 | 22.67090 | 113.79330 | 455 ft | 132 kts | 154° |
| 2026-04-27 13:37 | 22.66274 | 113.79778 | 276 ft | 131 kts | 153° |
| 2026-04-27 13:37 | 22.65464 | 113.80223 | 93 ft | 130 kts | 154° |
| 2026-04-27 13:38 | 22.64670 | 113.80656 | 31 ft | 122 kts | 153° |
| 2026-04-27 13:38 | 22.64057 | 113.80992 | 28 ft | 61 kts | 153° |
| 2026-04-27 13:38 | 22.63887 | 113.81090 | 28 ft | 16 kts | 153° |
| 2026-04-27 13:38 | 22.63771 | 113.81153 | 28 ft | 23 kts | 153° |
| 2026-04-27 13:39 | 22.63629 | 113.81232 | 28 ft | 23 kts | 153° |
| 2026-04-27 13:39 | 22.63488 | 113.81247 | 28 ft | 9 kts | 176° |
| 2026-04-27 13:39 | 22.63427 | 113.81252 | 28 ft | 9 kts | 176° |
| 2026-04-27 13:39 | 22.63359 | 113.81250 | 28 ft | 8 kts | 186° |
| 2026-04-27 13:40 | 22.63329 | 113.81235 | 28 ft | 0 kts | 225° |
| 2026-04-27 13:40 | 22.63326 | 113.81230 | 28 ft | 2 kts | 238° |
| 2026-04-27 13:40 | 22.63318 | 113.81214 | 28 ft | 3 kts | 244° |
| 2026-04-27 13:40 | 22.63306 | 113.81188 | 28 ft | 5 kts | 243° |
| 2026-04-27 13:41 | 22.63288 | 113.81150 | 28 ft | 6 kts | 247° |
| 2026-04-27 13:41 | 22.63282 | 113.81097 | 28 ft | 8 kts | 272° |
| 2026-04-27 13:41 | 22.63271 | 113.81034 | 28 ft | 9 kts | 242° |
| 2026-04-27 13:41 | 22.63242 | 113.80974 | 28 ft | 9 kts | 243° |
| 2026-04-27 13:42 | 22.63211 | 113.80909 | 28 ft | 9 kts | 243° |
| 2026-04-27 13:42 | 22.63186 | 113.80855 | 28 ft | 6 kts | 247° |
| 2026-04-27 13:42 | 22.63190 | 113.80816 | 28 ft | 5 kts | 302° |
| 2026-04-27 13:42 | 22.63213 | 113.80799 | 28 ft | 4 kts | 348° |
| 2026-04-27 13:43 | 22.63233 | 113.80796 | 28 ft | 3 kts | 349° |
| 2026-04-27 13:43 | 22.63254 | 113.80781 | 28 ft | 5 kts | 311° |
| 2026-04-27 13:43 | 22.63265 | 113.80768 | 28 ft | 2 kts | 312° |
| 2026-04-27 13:43 | 22.63278 | 113.80757 | 28 ft | 3 kts | 330° |
| 2026-04-27 13:44 | 22.63290 | 113.80750 | 28 ft | 0 kts | 333° |
| 2026-04-27 13:44 | 22.63295 | 113.80748 | 28 ft | 1 kts | 333° |
| 2026-04-27 13:44 | 22.63295 | 113.80747 | 28 ft | 0 kts | 333° |